createdAt,value
2018-03-22T00:02:22.852Z,18.60
2018-03-22T00:04:50.411Z,19.87
2018-03-22T00:07:17.944Z,16.70
2018-03-22T00:09:45.502Z,22.08
2018-03-22T00:12:13.046Z,18.37
2018-03-22T00:14:41.349Z,23.05
2018-03-22T00:17:08.887Z,17.67
2018-03-22T00:19:37.187Z,18.65
2018-03-22T00:22:04.728Z,17.77
2018-03-22T00:24:32.281Z,14.15
2018-03-22T00:27:00.594Z,14.00
2018-03-22T00:29:28.152Z,18.33
2018-03-22T00:31:55.705Z,11.45
2018-03-22T00:34:23.248Z,17.85
2018-03-22T00:36:50.788Z,23.20
2018-03-22T00:39:19.132Z,18.77
2018-03-22T00:41:46.624Z,18.00
2018-03-22T00:44:14.939Z,16.27
2018-03-22T00:46:42.480Z,17.02
2018-03-22T00:49:10.032Z,19.35
2018-03-22T00:51:37.573Z,20.98
2018-03-22T00:54:05.880Z,19.35
2018-03-22T00:56:33.402Z,18.10
2018-03-22T00:59:00.945Z,17.08
2018-03-22T01:01:28.463Z,15.60
2018-03-22T01:03:56.006Z,13.45
2018-03-22T01:06:23.548Z,14.50
2018-03-22T01:08:51.854Z,14.70
2018-03-22T01:11:19.405Z,12.05
2018-03-22T01:13:46.937Z,13.85
2018-03-22T01:16:15.254Z,15.93
2018-03-22T01:18:42.773Z,15.88
2018-03-22T01:21:11.083Z,13.62
2018-03-22T01:23:38.606Z,18.12
2018-03-22T01:26:06.955Z,17.12
2018-03-22T01:28:34.482Z,18.20
2018-03-22T01:31:02.026Z,17.77
2018-03-22T01:33:29.568Z,18.20
2018-03-22T01:35:57.877Z,13.80
2018-03-22T01:38:25.427Z,12.37
2018-03-22T01:40:52.953Z,14.93
2018-03-22T01:43:20.511Z,16.33
2018-03-22T01:45:48.038Z,18.27
2018-03-22T01:48:15.588Z,19.80
2018-03-22T01:50:43.130Z,14.75
2018-03-22T01:53:13.639Z,23.58
2018-03-22T01:55:41.960Z,17.25
2018-03-22T01:58:09.500Z,19.15
2018-03-22T02:00:37.061Z,18.20
2018-03-22T02:03:04.589Z,22.87
2018-03-22T02:05:32.925Z,14.70
2018-03-22T02:08:00.453Z,17.15
2018-03-22T02:10:28.001Z,14.07
2018-03-22T02:12:55.538Z,13.48
2018-03-22T02:15:23.866Z,12.68
2018-03-22T02:17:51.384Z,19.70
2018-03-22T02:20:19.702Z,15.10
2018-03-22T02:22:47.230Z,12.57
2018-03-22T02:25:14.771Z,20.25
2018-03-22T02:27:43.069Z,16.52
2018-03-22T02:30:10.623Z,12.88
2018-03-22T02:32:38.159Z,18.20
2018-03-22T02:35:06.459Z,14.48
2018-03-22T02:37:34.008Z,13.18
2018-03-22T02:40:02.307Z,12.88
2018-03-22T02:42:29.846Z,15.63
2018-03-22T02:44:58.157Z,16.37
2018-03-22T02:47:25.686Z,20.70
2018-03-22T02:49:54.007Z,19.52
2018-03-22T02:52:21.536Z,16.52
2018-03-22T02:54:49.077Z,13.23
2018-03-22T02:57:17.358Z,15.93
2018-03-22T02:59:44.897Z,16.20
2018-03-22T03:02:13.196Z,17.15
2018-03-22T03:04:40.772Z,14.32
2018-03-22T03:07:08.323Z,13.20
2018-03-22T03:09:35.844Z,10.13
2018-03-22T03:12:03.392Z,13.27
2018-03-22T03:14:30.929Z,15.68
2018-03-22T03:16:58.481Z,13.27
2018-03-22T03:19:26.027Z,13.27
2018-03-22T03:21:53.572Z,12.80
2018-03-22T03:24:21.095Z,9.50
2018-03-22T03:26:48.646Z,10.98
2018-03-22T03:29:16.172Z,14.13
2018-03-22T03:31:43.695Z,15.02
2018-03-22T03:34:12.001Z,13.40
2018-03-22T03:36:39.531Z,15.02
2018-03-22T03:39:07.093Z,11.57
2018-03-22T03:41:35.492Z,13.30
2018-03-22T03:44:03.033Z,13.85
2018-03-22T03:46:31.317Z,12.43
2018-03-22T03:48:58.863Z,19.08
2018-03-22T03:51:27.159Z,11.55
2018-03-22T03:53:54.734Z,17.52
2018-03-22T03:56:22.267Z,13.73
2018-03-22T03:58:50.580Z,14.70
2018-03-22T04:01:18.129Z,14.05
2018-03-22T04:03:45.651Z,21.75
2018-03-22T04:06:13.966Z,18.98
2018-03-22T04:08:41.482Z,10.68
2018-03-22T04:11:09.808Z,18.45
2018-03-22T04:13:37.351Z,12.98
2018-03-22T04:16:04.915Z,12.23
2018-03-22T04:18:32.449Z,14.43
2018-03-22T04:21:00.747Z,16.77
2018-03-22T04:23:28.290Z,17.02
2018-03-22T04:25:55.818Z,14.27
2018-03-22T04:28:23.366Z,14.00
2018-03-22T04:30:50.894Z,13.57
2018-03-22T04:33:18.434Z,13.85
2018-03-22T04:35:45.981Z,11.73
2018-03-22T04:38:14.304Z,11.95
2018-03-22T04:40:41.836Z,11.80
2018-03-22T04:43:09.370Z,15.13
2018-03-22T04:45:37.682Z,13.38
2018-03-22T04:48:05.213Z,13.70
2018-03-22T04:50:32.763Z,24.15
2018-03-22T04:53:01.063Z,17.92
2018-03-22T04:55:28.612Z,13.20
2018-03-22T04:57:56.137Z,17.62
2018-03-22T05:00:23.705Z,19.10
2018-03-22T05:02:51.240Z,21.92
2018-03-22T05:05:18.782Z,17.83
2018-03-22T05:07:46.307Z,15.15
2018-03-22T05:10:13.869Z,21.00
2018-03-22T05:12:41.423Z,18.95
2018-03-22T05:15:08.955Z,15.38
2018-03-22T05:17:36.488Z,14.20
2018-03-22T05:20:04.007Z,18.65
2018-03-22T05:22:31.549Z,14.52
2018-03-22T05:24:59.898Z,12.68
2018-03-22T05:27:27.430Z,28.55
2018-03-22T05:29:54.983Z,12.25
2018-03-22T05:32:22.529Z,10.23
2018-03-22T05:34:50.077Z,14.80
2018-03-22T05:37:18.089Z,13.95
2018-03-22T05:39:45.690Z,14.27
2018-03-22T05:42:13.995Z,22.08
2018-03-22T05:44:41.559Z,18.83
2018-03-22T05:47:09.101Z,25.20
2018-03-22T05:49:36.663Z,16.98
2018-03-22T05:52:05.050Z,20.00
2018-03-22T05:54:32.874Z,21.10
2018-03-22T05:57:00.448Z,14.95
2018-03-22T05:59:28.831Z,12.45
2018-03-22T06:01:57.139Z,15.85
2018-03-22T06:04:24.652Z,15.15
2018-03-22T06:06:52.186Z,15.30
2018-03-22T06:09:19.707Z,12.45
2018-03-22T06:11:47.256Z,17.95
2018-03-22T06:14:14.782Z,13.85
2018-03-22T06:16:42.346Z,15.00
2018-03-22T06:19:09.884Z,13.57
2018-03-22T06:21:37.426Z,11.55
2018-03-22T06:24:04.976Z,18.17
2018-03-22T06:26:32.511Z,15.25
2018-03-22T06:29:00.834Z,18.65
2018-03-22T06:31:28.377Z,14.93
2018-03-22T06:33:55.921Z,13.25
2018-03-22T06:36:23.461Z,16.73
2018-03-22T06:38:51.034Z,19.65
2018-03-22T06:41:18.554Z,18.90
2018-03-22T06:43:46.115Z,18.30
2018-03-22T06:46:13.652Z,18.15
2018-03-22T06:48:41.169Z,18.83
2018-03-22T06:51:08.722Z,15.38
2018-03-22T06:53:36.265Z,19.35
2018-03-22T06:56:04.592Z,16.90
2018-03-22T06:58:32.116Z,12.90
2018-03-22T07:00:59.656Z,16.12
2018-03-22T07:03:27.942Z,14.65
2018-03-22T07:05:56.259Z,13.80
2018-03-22T07:08:23.851Z,24.17
2018-03-22T07:10:51.383Z,16.35
2018-03-22T07:13:18.928Z,13.93
2018-03-22T07:15:46.465Z,13.70
2018-03-22T07:18:14.021Z,13.55
2018-03-22T07:20:41.656Z,14.23
2018-03-22T07:23:09.204Z,14.68
2018-03-22T07:25:36.740Z,10.95
2018-03-22T07:28:04.282Z,18.33
2018-03-22T07:30:31.824Z,13.30
2018-03-22T07:32:59.405Z,12.05
2018-03-22T07:35:26.924Z,14.23
2018-03-22T07:37:55.209Z,13.48
2018-03-22T07:40:23.509Z,20.15
2018-03-22T07:42:56.716Z,12.52
2018-03-22T07:45:24.257Z,15.27
2018-03-22T07:47:51.791Z,20.80
2018-03-22T07:50:20.101Z,12.80
2018-03-22T07:52:47.644Z,13.30
2018-03-22T07:55:15.199Z,15.80
2018-03-22T07:57:42.740Z,12.57
2018-03-22T08:00:11.036Z,12.93
2018-03-22T08:02:38.575Z,12.43
2018-03-22T08:05:06.853Z,14.90
2018-03-22T08:07:35.171Z,13.32
2018-03-22T08:10:02.713Z,16.33
2018-03-22T08:12:30.244Z,11.05
2018-03-22T08:14:58.540Z,10.55
2018-03-22T08:17:26.084Z,10.32
2018-03-22T08:19:54.376Z,9.85
2018-03-22T08:22:21.940Z,13.40
2018-03-22T08:24:49.482Z,8.93
2018-03-22T08:27:17.762Z,12.55
2018-03-22T08:29:46.058Z,8.63
2018-03-22T08:32:13.591Z,11.60
2018-03-22T08:34:41.916Z,10.45
2018-03-22T08:37:09.443Z,12.73
2018-03-22T08:39:36.979Z,9.25
2018-03-22T08:42:04.499Z,10.13
2018-03-22T08:44:32.068Z,9.60
2018-03-22T08:46:59.589Z,8.82
2018-03-22T08:49:27.111Z,13.52
2018-03-22T08:51:54.656Z,9.52
2018-03-22T08:54:22.175Z,10.77
2018-03-22T08:56:49.718Z,7.95
2018-03-22T08:59:17.238Z,7.80
2018-03-22T09:01:44.784Z,8.13
2018-03-22T09:04:12.315Z,11.40
2018-03-22T09:06:40.648Z,7.95
2018-03-22T09:09:08.946Z,18.70
2018-03-22T09:11:36.515Z,8.98
2018-03-22T09:14:04.059Z,6.55
2018-03-22T09:16:31.599Z,5.68
2018-03-22T09:18:59.906Z,5.35
2018-03-22T09:21:27.503Z,8.68
2018-03-22T09:23:55.046Z,5.78
2018-03-22T09:26:22.580Z,6.97
2018-03-22T09:28:50.134Z,6.15
2018-03-22T09:31:18.411Z,6.25
2018-03-22T09:33:46.824Z,6.12
2018-03-22T09:36:14.349Z,7.65
2018-03-22T09:38:41.891Z,6.62
2018-03-22T09:41:10.215Z,7.03
2018-03-22T09:43:37.755Z,7.55
2018-03-22T09:46:05.299Z,8.68
2018-03-22T09:48:33.584Z,6.10
2018-03-22T09:51:01.128Z,5.45
2018-03-22T09:53:29.421Z,6.05
2018-03-22T09:55:56.954Z,7.43
2018-03-22T09:58:24.473Z,4.97
2018-03-22T10:00:52.024Z,5.80
2018-03-22T10:03:19.537Z,5.30
2018-03-22T10:05:47.820Z,5.90
2018-03-22T10:08:16.146Z,8.80
2018-03-22T10:10:43.680Z,10.70
2018-03-22T10:13:11.214Z,7.45
2018-03-22T10:15:39.498Z,6.55
2018-03-22T10:18:07.816Z,7.37
2018-03-22T10:20:36.215Z,5.90
2018-03-22T10:23:03.765Z,6.85
2018-03-22T10:25:31.284Z,6.47
2018-03-22T10:27:58.801Z,4.95
2018-03-22T10:30:26.340Z,9.70
2018-03-22T10:32:53.883Z,6.75
2018-03-22T10:35:21.432Z,6.75
2018-03-22T10:37:48.955Z,6.43
2018-03-22T10:40:17.260Z,6.65
2018-03-22T10:42:44.787Z,5.00
2018-03-22T10:45:13.102Z,14.02
2018-03-22T10:47:40.636Z,5.80
2018-03-22T10:50:08.951Z,5.37
2018-03-22T10:52:36.468Z,8.18
2018-03-22T10:55:04.748Z,7.93
2018-03-22T10:57:33.041Z,7.30
2018-03-22T11:00:00.564Z,6.57
2018-03-22T11:02:33.784Z,8.23
2018-03-22T11:05:01.320Z,14.60
2018-03-22T11:07:28.853Z,6.57
2018-03-22T11:09:56.382Z,10.02
2018-03-22T11:12:23.917Z,6.60
2018-03-22T11:14:52.224Z,6.65
2018-03-22T11:17:19.729Z,6.03
2018-03-22T11:19:47.273Z,6.53
2018-03-22T11:22:14.808Z,9.10
2018-03-22T11:24:42.355Z,5.47
2018-03-22T11:27:09.892Z,7.22
2018-03-22T11:29:37.426Z,7.50
2018-03-22T11:32:05.724Z,5.90
2018-03-22T11:34:33.280Z,6.03
2018-03-22T11:37:01.565Z,5.55
2018-03-22T11:39:29.112Z,5.18
2018-03-22T11:41:56.658Z,9.27
2018-03-22T11:44:24.942Z,8.75
2018-03-22T11:46:53.242Z,6.18
2018-03-22T11:49:20.762Z,5.60
2018-03-22T11:51:48.308Z,9.70
2018-03-22T11:54:15.849Z,5.87
2018-03-22T11:56:43.407Z,8.60
2018-03-22T11:59:10.931Z,9.10
2018-03-22T12:01:38.469Z,6.37
2018-03-22T12:04:06.793Z,5.10
2018-03-22T12:06:34.327Z,7.05
2018-03-22T12:09:01.886Z,7.55
2018-03-22T12:11:29.435Z,7.05
2018-03-22T12:13:56.974Z,5.85
2018-03-22T12:16:25.275Z,6.12
2018-03-22T12:18:52.840Z,5.95
2018-03-22T12:21:20.363Z,6.60
2018-03-22T12:23:47.907Z,6.60
2018-03-22T12:26:15.546Z,6.37
2018-03-22T12:28:43.074Z,7.43
2018-03-22T12:31:10.615Z,6.50
2018-03-22T12:33:38.918Z,5.87
2018-03-22T12:36:06.489Z,5.68
2018-03-22T12:38:34.016Z,8.45
2018-03-22T12:41:02.333Z,6.57
2018-03-22T12:43:29.883Z,5.53
2018-03-22T12:45:57.461Z,7.87
2018-03-22T12:48:24.997Z,7.60
2018-03-22T12:50:52.527Z,6.00
2018-03-22T12:53:20.832Z,5.03
2018-03-22T12:55:48.352Z,6.72
2018-03-22T12:58:15.905Z,7.03
2018-03-22T13:00:43.424Z,9.98
2018-03-22T13:03:10.972Z,5.72
2018-03-22T13:05:38.510Z,9.45
2018-03-22T13:08:06.050Z,4.78
2018-03-22T13:10:34.335Z,6.43
2018-03-22T13:13:02.628Z,6.75
2018-03-22T13:15:30.197Z,7.15
2018-03-22T13:17:57.735Z,7.00
2018-03-22T13:20:26.055Z,11.02
2018-03-22T13:22:53.592Z,7.25
2018-03-22T13:25:21.149Z,6.22
2018-03-22T13:27:48.667Z,8.35
2018-03-22T13:30:16.222Z,5.62
2018-03-22T13:32:43.745Z,4.45
2018-03-22T13:35:11.313Z,5.18
2018-03-22T13:37:38.848Z,4.32
2018-03-22T13:40:06.377Z,5.12
2018-03-22T13:42:34.686Z,5.25
2018-03-22T13:45:02.201Z,5.12
2018-03-22T13:47:29.747Z,5.07
2018-03-22T13:49:57.279Z,11.95
2018-03-22T13:52:24.817Z,5.70
2018-03-22T13:54:52.346Z,6.05
2018-03-22T13:57:20.658Z,5.50
2018-03-22T13:59:48.188Z,5.57
2018-03-22T14:02:16.479Z,4.55
2018-03-22T14:04:44.029Z,6.82
2018-03-22T14:07:12.320Z,5.80
2018-03-22T14:09:39.865Z,6.05
2018-03-22T14:12:08.142Z,4.87
2018-03-22T14:14:36.443Z,8.23
2018-03-22T14:17:03.957Z,6.25
2018-03-22T14:19:31.498Z,9.32
2018-03-22T14:21:59.025Z,5.10
2018-03-22T14:24:26.573Z,5.80
2018-03-22T14:26:54.094Z,4.70
2018-03-22T14:29:21.629Z,5.57
2018-03-22T14:31:49.171Z,6.30
2018-03-22T14:34:16.700Z,7.18
2018-03-22T14:36:44.258Z,8.68
2018-03-22T14:39:11.782Z,6.20
2018-03-22T14:41:39.326Z,7.00
2018-03-22T14:44:06.855Z,7.80
2018-03-22T14:46:34.410Z,6.62
2018-03-22T14:49:01.939Z,6.95
2018-03-22T14:51:30.216Z,5.22
2018-03-22T14:53:58.523Z,6.75
2018-03-22T14:56:26.051Z,6.05
2018-03-22T14:58:54.366Z,6.65
2018-03-22T15:01:21.887Z,8.80
2018-03-22T15:03:50.186Z,9.45
2018-03-22T15:06:17.714Z,6.47
2018-03-22T15:08:46.038Z,5.35
2018-03-22T15:11:13.572Z,5.50
2018-03-22T15:13:41.114Z,4.97
2018-03-22T15:16:09.390Z,5.37
2018-03-22T15:18:37.686Z,5.18
2018-03-22T15:21:05.213Z,4.75
2018-03-22T15:23:32.739Z,5.43
2018-03-22T15:26:00.272Z,5.78
2018-03-22T15:28:27.797Z,4.20
2018-03-22T15:30:56.099Z,4.90
2018-03-22T15:33:23.636Z,3.55
2018-03-22T15:35:51.955Z,5.65
2018-03-22T15:38:19.478Z,4.28
2018-03-22T15:40:47.772Z,4.40
2018-03-22T15:43:15.314Z,4.87
2018-03-22T15:45:43.616Z,4.40
2018-03-22T15:48:11.180Z,3.50
2018-03-22T15:50:38.720Z,7.18
2018-03-22T15:53:07.036Z,4.65
2018-03-22T15:55:34.564Z,5.35
2018-03-22T15:58:02.170Z,5.10
2018-03-22T16:00:29.700Z,3.80
2018-03-22T16:02:57.248Z,4.60
2018-03-22T16:05:24.785Z,5.40
2018-03-22T16:07:53.079Z,5.85
2018-03-22T16:10:20.604Z,9.70
2018-03-22T16:12:48.129Z,8.65
2018-03-22T16:15:15.676Z,6.07
2018-03-22T16:17:43.203Z,7.68
2018-03-22T16:20:11.496Z,6.30
2018-03-22T16:22:39.022Z,7.07
2018-03-22T16:25:07.473Z,6.87
2018-03-22T16:27:35.016Z,9.45
2018-03-22T16:30:02.536Z,7.30
2018-03-22T16:32:30.078Z,9.30
2018-03-22T16:34:57.593Z,13.73
2018-03-22T16:37:25.255Z,7.80
2018-03-22T16:39:52.763Z,10.85
2018-03-22T16:42:21.080Z,9.77
2018-03-22T16:44:48.602Z,11.15
2018-03-22T16:47:16.957Z,8.35
2018-03-22T16:49:44.465Z,6.82
2018-03-22T16:52:12.012Z,7.68
2018-03-22T16:54:39.540Z,6.12
2018-03-22T16:57:07.069Z,6.57
2018-03-22T16:59:34.613Z,10.38
2018-03-22T17:02:02.158Z,6.25
2018-03-22T17:04:29.665Z,5.95
2018-03-22T17:06:57.193Z,3.05
2018-03-22T17:09:24.733Z,3.35
2018-03-22T17:11:52.272Z,2.10
2018-03-22T17:14:20.568Z,1.75
2018-03-22T17:16:48.082Z,1.75
2018-03-22T17:19:15.610Z,2.03
2018-03-22T17:21:43.136Z,5.60
2018-03-22T17:24:10.669Z,2.37
2018-03-22T17:26:38.988Z,2.12
2018-03-22T17:29:06.508Z,2.30
2018-03-22T17:31:34.044Z,1.60
2018-03-22T17:34:01.571Z,3.75
2018-03-22T17:36:29.129Z,2.20
2018-03-22T17:38:56.657Z,2.85
2018-03-22T17:41:24.931Z,2.50
2018-03-22T17:43:53.242Z,6.00
2018-03-22T17:46:20.777Z,1.70
2018-03-22T17:48:48.314Z,1.90
2018-03-22T17:51:16.619Z,2.20
2018-03-22T17:53:44.176Z,4.65
2018-03-22T17:56:11.710Z,2.17
2018-03-22T17:58:40.048Z,6.65
2018-03-22T18:01:07.577Z,3.87
2018-03-22T18:03:35.132Z,1.95
2018-03-22T18:06:02.661Z,2.50
2018-03-22T18:08:31.005Z,3.28
2018-03-22T18:10:58.527Z,5.68
2018-03-22T18:13:26.060Z,2.15
2018-03-22T18:15:54.360Z,4.30
2018-03-22T18:18:21.911Z,2.83
2018-03-22T18:20:49.450Z,2.87
2018-03-22T18:23:16.976Z,2.33
2018-03-22T18:25:45.238Z,4.70
2018-03-22T18:28:12.780Z,2.10
2018-03-22T18:30:40.316Z,5.75
2018-03-22T18:33:08.644Z,3.70
2018-03-22T18:35:36.172Z,2.37
2018-03-22T18:38:04.849Z,4.45
2018-03-22T18:40:32.427Z,4.45
2018-03-22T18:43:00.025Z,2.95
2018-03-22T18:45:27.540Z,3.30
2018-03-22T18:47:55.115Z,5.68
2018-03-22T18:50:22.656Z,4.97
2018-03-22T18:52:50.177Z,5.80
2018-03-22T18:55:17.739Z,3.33
2018-03-22T18:57:45.254Z,5.47
2018-03-22T19:00:12.824Z,7.05
2018-03-22T19:02:41.197Z,7.40
2018-03-22T19:05:08.824Z,5.40
2018-03-22T19:07:36.347Z,7.07
2018-03-22T19:10:03.887Z,5.32
2018-03-22T19:12:32.432Z,5.35
2018-03-22T19:14:59.972Z,7.78
2018-03-22T19:17:28.293Z,4.65
2018-03-22T19:19:55.828Z,7.75
2018-03-22T19:22:23.362Z,5.50
2018-03-22T19:24:51.664Z,5.35
2018-03-22T19:27:19.219Z,7.65
2018-03-22T19:29:46.801Z,5.93
2018-03-22T19:32:14.335Z,5.57
2018-03-22T19:34:41.864Z,9.68
2018-03-22T19:37:09.427Z,6.18
2018-03-22T19:39:37.713Z,8.02
2018-03-22T19:42:06.020Z,11.25
2018-03-22T19:44:33.565Z,6.45
2018-03-22T19:47:01.090Z,6.75
2018-03-22T19:49:28.686Z,8.80
2018-03-22T19:51:56.213Z,21.80
2018-03-22T19:54:23.765Z,8.18
2018-03-22T19:56:51.292Z,11.48
2018-03-22T19:59:18.842Z,7.65
2018-03-22T20:01:46.360Z,6.60
2018-03-22T20:04:14.644Z,8.98
2018-03-22T20:06:42.939Z,8.45
2018-03-22T20:09:10.446Z,7.93
2018-03-22T20:11:37.984Z,7.75
2018-03-22T20:14:05.523Z,13.77
2018-03-22T20:16:33.050Z,15.32
2018-03-22T20:19:01.358Z,8.75
2018-03-22T20:21:28.895Z,7.00
2018-03-22T20:23:57.206Z,7.10
2018-03-22T20:26:24.737Z,6.90
2018-03-22T20:28:52.271Z,7.93
2018-03-22T20:31:19.792Z,15.90
2018-03-22T20:33:47.335Z,7.22
2018-03-22T20:36:14.853Z,9.18
2018-03-22T20:38:43.153Z,20.58
2018-03-22T20:41:10.688Z,14.07
2018-03-22T20:43:38.990Z,23.62
2018-03-22T20:46:06.513Z,22.15
2018-03-22T20:48:34.070Z,19.87
2018-03-22T20:51:01.594Z,12.35
2018-03-22T20:53:29.124Z,12.32
2018-03-22T20:55:56.665Z,8.02
2018-03-22T20:58:25.445Z,13.57
2018-03-22T21:00:53.752Z,10.23
2018-03-22T21:03:21.282Z,6.55
2018-03-22T21:05:49.588Z,9.05
2018-03-22T21:08:17.140Z,9.10
2018-03-22T21:10:44.673Z,11.77
2018-03-22T21:13:12.210Z,7.60
2018-03-22T21:15:39.744Z,10.25
2018-03-22T21:18:07.279Z,7.07
2018-03-22T21:20:34.800Z,7.75
2018-03-22T21:23:02.350Z,8.73
2018-03-22T21:25:29.900Z,12.02
2018-03-22T21:27:57.436Z,9.73
2018-03-22T21:30:24.946Z,8.23
2018-03-22T21:32:52.506Z,12.98
2018-03-22T21:35:20.790Z,11.15
2018-03-22T21:37:49.117Z,13.88
2018-03-22T21:40:16.628Z,14.60
2018-03-22T21:42:44.928Z,19.45
2018-03-22T21:45:12.508Z,15.27
2018-03-22T21:47:40.086Z,11.18
2018-03-22T21:50:07.624Z,21.48
2018-03-22T21:52:47.019Z,23.70
2018-03-22T21:55:15.340Z,22.87
2018-03-22T21:57:42.859Z,11.80
2018-03-22T22:00:11.161Z,13.10
2018-03-22T22:02:38.686Z,10.00
2018-03-22T22:05:07.011Z,15.48
2018-03-22T22:07:34.553Z,18.80
2018-03-22T22:10:02.082Z,25.08
2018-03-22T22:12:30.412Z,14.90
2018-03-22T22:14:57.976Z,18.35
2018-03-22T22:17:25.513Z,12.48
2018-03-22T22:19:53.031Z,18.87
2018-03-22T22:22:20.565Z,12.40
2018-03-22T22:24:48.102Z,24.45
2018-03-22T22:27:15.660Z,27.70
2018-03-22T22:29:43.185Z,31.80
2018-03-22T22:32:11.488Z,28.40
2018-03-22T22:34:39.042Z,19.52
2018-03-22T22:37:06.565Z,14.52
2018-03-22T22:39:34.888Z,11.63
2018-03-22T22:42:02.431Z,12.75
2018-03-22T22:44:29.967Z,10.95
2018-03-22T22:46:58.260Z,12.23
2018-03-22T22:49:25.809Z,10.07
2018-03-22T22:51:54.109Z,11.12
2018-03-22T22:54:21.665Z,11.82
2018-03-22T22:56:49.193Z,8.13
2018-03-22T22:59:17.498Z,10.52
2018-03-22T23:01:45.064Z,8.27
2018-03-22T23:04:12.599Z,9.35
2018-03-22T23:06:41.019Z,11.38
2018-03-22T23:09:08.692Z,8.38
2018-03-22T23:11:36.222Z,11.65
2018-03-22T23:14:03.754Z,7.22
2018-03-22T23:16:32.074Z,12.55
2018-03-22T23:18:59.604Z,8.95
2018-03-22T23:21:27.146Z,12.35
2018-03-22T23:23:55.453Z,9.38
2018-03-22T23:26:22.972Z,9.65
2018-03-22T23:28:50.514Z,9.25
2018-03-22T23:31:18.022Z,8.13
2018-03-22T23:33:45.565Z,9.90
2018-03-22T23:36:13.849Z,6.55
2018-03-22T23:38:41.406Z,7.28
2018-03-22T23:41:09.700Z,14.25
2018-03-22T23:43:37.243Z,9.13
2018-03-22T23:46:05.524Z,10.90
2018-03-22T23:48:33.053Z,8.95
2018-03-22T23:51:01.370Z,9.27
2018-03-22T23:53:28.902Z,10.38
2018-03-22T23:55:57.221Z,6.10
2018-03-22T23:58:24.760Z,7.03
